Time;durP1;ratioP1;P1;durP2;ratioP2;P2;SDS_P1;SDS_P2;PMS_P1;PMS_P2;Temp;Humidity;BMP_temperature;BMP_pressure;BME280_temperature;BME280_humidity;BME280_pressure;Samples;Min_cycle;Max_cycle;Signal;HPM_P1;HPM_P2
2023/03/24 00:01:42;;;;;;;9.25;4.20;;;11.10;99.90;;;;;;5056221;28;20060;-22
2023/03/24 00:04:07;;;;;;;9.13;4.22;;;11.30;99.90;;;;;;5073526;28;20133;-22
2023/03/24 00:06:35;;;;;;;10.07;4.20;;;11.10;99.90;;;;;;5073481;28;20103;-22
2023/03/24 00:09:03;;;;;;;13.48;6.45;;;11.20;99.90;;;;;;5055418;28;20492;-22
2023/03/24 00:11:28;;;;;;;11.95;4.28;;;11.20;99.90;;;;;;5073462;28;20445;-22
2023/03/24 00:13:57;;;;;;;11.90;5.03;;;11.10;99.90;;;;;;5072078;28;20044;-22
2023/03/24 00:16:23;;;;;;;9.30;4.95;;;11.30;99.90;;;;;;5073405;28;20045;-22
2023/03/24 00:18:51;;;;;;;9.60;5.10;;;11.00;99.90;;;;;;5073973;28;20087;-21
2023/03/24 00:21:20;;;;;;;9.43;4.50;;;11.20;99.90;;;;;;5073331;28;20106;-21
2023/03/24 00:23:48;;;;;;;11.25;4.50;;;10.90;99.90;;;;;;5073260;28;20380;-22
2023/03/24 00:26:15;;;;;;;7.45;4.38;;;10.80;99.90;;;;;;5055696;28;20049;-23
2023/03/24 00:28:47;;;;;;;11.95;4.30;;;11.30;99.90;;;;;;5055637;28;20094;-22
2023/03/24 00:31:16;;;;;;;10.57;4.72;;;10.80;99.90;;;;;;5073267;28;20068;-22
2023/03/24 00:33:46;;;;;;;7.20;3.72;;;10.80;99.90;;;;;;5073774;28;20071;-22
2023/03/24 00:36:12;;;;;;;9.35;3.72;;;10.80;99.90;;;;;;5073322;28;20474;-21
2023/03/24 00:38:40;;;;;;;10.75;4.45;;;10.80;99.90;;;;;;5071714;28;20044;-20
2023/03/24 00:41:09;;;;;;;11.45;4.90;;;11.10;99.90;;;;;;5073157;28;20487;-21
2023/03/24 00:43:37;;;;;;;8.63;3.92;;;11.20;99.90;;;;;;5055407;28;20091;-21
2023/03/24 00:46:07;;;;;;;8.27;3.58;;;10.80;99.90;;;;;;5073076;28;20059;-21
2023/03/24 00:48:33;;;;;;;8.27;3.92;;;11.30;99.90;;;;;;5054799;28;20075;-22
2023/03/24 00:51:04;;;;;;;10.25;3.95;;;11.30;99.90;;;;;;5072361;28;20091;-21
2023/03/24 00:53:30;;;;;;;12.80;4.55;;;10.80;99.90;;;;;;5073059;28;20044;-21
2023/03/24 00:55:57;;;;;;;8.48;2.97;;;11.10;99.90;;;;;;5055102;28;20048;-20
2023/03/24 00:58:24;;;;;;;7.57;3.97;;;11.20;99.90;;;;;;5071732;28;20049;-20
2023/03/24 01:00:52;;;;;;;7.43;4.53;;;11.10;99.90;;;;;;5076500;28;20102;-20
2023/03/24 01:03:21;;;;;;;7.57;3.65;;;10.80;99.90;;;;;;5076704;28;20045;-20
2023/03/24 01:05:47;;;;;;;7.70;3.92;;;10.90;99.90;;;;;;5076385;28;20506;-21
2023/03/24 01:08:19;;;;;;;4.90;3.00;;;10.80;99.90;;;;;;5075113;28;20052;-20
2023/03/24 01:10:52;;;;;;;6.95;3.83;;;11.20;99.90;;;;;;5076608;28;20083;-20
2023/03/24 01:13:30;;;;;;;10.75;4.10;;;11.20;99.90;;;;;;5075851;28;20456;-21
2023/03/24 01:15:58;;;;;;;8.20;3.50;;;10.90;99.90;;;;;;5076487;28;20052;-20
2023/03/24 01:18:24;;;;;;;7.72;2.97;;;10.90;99.90;;;;;;5076437;28;20044;-21
2023/03/24 01:20:52;;;;;;;8.43;4.63;;;11.30;99.90;;;;;;5077210;28;20524;-21
2023/03/24 01:23:26;;;;;;;7.25;3.65;;;10.80;99.90;;;;;;5076329;28;20135;-21
2023/03/24 01:25:53;;;;;;;8.05;4.13;;;11.40;99.90;;;;;;5076354;28;20049;-21
2023/03/24 01:28:23;;;;;;;8.05;3.60;;;11.40;99.90;;;;;;5076714;28;20044;-21
2023/03/24 01:30:51;;;;;;;7.95;3.83;;;11.10;99.90;;;;;;5075841;28;20079;-21
2023/03/24 01:33:17;;;;;;;9.77;3.63;;;10.90;99.90;;;;;;5074981;28;20048;-20
2023/03/24 01:35:43;;;;;;;6.40;3.60;;;10.90;99.90;;;;;;5076151;28;20057;-20
2023/03/24 01:38:10;;;;;;;8.98;3.78;;;11.40;99.90;;;;;;5076046;28;20048;-20
2023/03/24 01:40:40;;;;;;;10.05;3.83;;;11.50;99.90;;;;;;5076082;28;20052;-21
2023/03/24 01:43:07;;;;;;;4.93;2.85;;;11.30;99.90;;;;;;5076232;28;20059;-21
2023/03/24 01:45:42;;;;;;;4.53;3.20;;;11.40;99.90;;;;;;5075951;28;20052;-20
2023/03/24 01:48:21;;;;;;;5.13;2.67;;;11.30;99.90;;;;;;5075535;28;20049;-20
2023/03/24 01:51:00;;;;;;;8.13;2.97;;;11.00;99.90;;;;;;5075897;28;20088;-20
2023/03/24 01:53:28;;;;;;;6.57;2.95;;;11.00;99.90;;;;;;5075826;28;20044;-21
2023/03/24 01:55:55;;;;;;;9.20;3.10;;;10.90;99.90;;;;;;5075794;28;20049;-21
2023/03/24 01:58:23;;;;;;;5.07;3.53;;;10.90;99.90;;;;;;5075764;28;20040;-21
2023/03/24 02:00:49;;;;;;;7.00;3.70;;;11.40;99.90;;;;;;5075328;28;20491;-20
2023/03/24 02:03:19;;;;;;;7.60;3.28;;;11.50;99.90;;;;;;5075651;28;20399;-20
2023/03/24 02:05:49;;;;;;;8.57;4.38;;;11.20;99.90;;;;;;5075871;28;20045;-20
2023/03/24 02:08:28;;;;;;;8.57;3.50;;;10.90;99.90;;;;;;5075440;28;20048;-20
2023/03/24 02:10:55;;;;;;;10.07;3.15;;;11.60;99.90;;;;;;5075337;28;20056;-20
2023/03/24 02:13:22;;;;;;;3.72;2.20;;;11.10;99.90;;;;;;5075316;28;20052;-21
2023/03/24 02:16:12;;;;;;;6.40;3.17;;;11.60;99.90;;;;;;5075597;28;20475;-21
2023/03/24 02:18:53;;;;;;;6.82;4.10;;;11.10;99.90;;;;;;5075380;28;20036;-21
2023/03/24 02:21:45;;;;;;;9.25;4.68;;;11.40;99.90;;;;;;5075361;28;20051;-21
2023/03/24 02:24:59;;;;;;;8.15;4.68;;;11.60;99.90;;;;;;5075023;28;20563;-21
2023/03/24 02:27:54;;;;;;;10.07;6.28;;;11.10;99.90;;;;;;5075402;28;20048;-21
2023/03/24 02:30:47;;;;;;;7.93;3.83;;;11.30;99.90;;;;;;5075654;28;20048;-21
2023/03/24 02:33:26;;;;;;;6.10;2.90;;;11.70;99.90;;;;;;5075089;28;20052;-20
2023/03/24 02:36:02;;;;;;;4.57;3.10;;;11.30;99.90;;;;;;5075596;28;20055;-21
2023/03/24 02:39:00;;;;;;;7.10;3.90;;;11.70;99.90;;;;;;5075241;28;20036;-21
2023/03/24 02:42:01;;;;;;;6.03;3.13;;;11.10;99.90;;;;;;5073351;28;20052;-22
2023/03/24 02:44:44;;;;;;;3.85;2.63;;;11.10;99.90;;;;;;5074738;28;20140;-21
2023/03/24 02:47:47;;;;;;;7.97;3.90;;;11.70;99.90;;;;;;5075288;28;20036;-21
2023/03/24 02:50:19;;;;;;;6.43;3.42;;;11.70;99.90;;;;;;5056999;28;20568;-22
2023/03/24 02:52:59;;;;;;;7.00;3.92;;;11.50;99.90;;;;;;5074911;28;20057;-21
2023/03/24 02:55:35;;;;;;;6.80;3.85;;;11.00;99.90;;;;;;5074596;28;20095;-22
2023/03/24 02:58:07;;;;;;;9.73;4.45;;;11.00;99.90;;;;;;5074544;28;20127;-22
2023/03/24 03:00:51;;;;;;;7.03;3.10;;;11.20;99.90;;;;;;5075355;28;20048;-22
2023/03/24 03:03:28;;;;;;;;;;;11.00;99.90;;;;;;5074925;28;20051;-22
2023/03/24 03:05:59;;;;;;;4.65;3.15;;;11.70;99.90;;;;;;5074984;28;19924;-21
2023/03/24 03:08:29;;;;;;;6.55;4.97;;;11.10;99.90;;;;;;5074593;28;20040;-22
2023/03/24 03:10:57;;;;;;;7.05;4.00;;;11.00;99.90;;;;;;5075173;28;20044;-21
2023/03/24 03:13:31;;;;;;;7.68;4.00;;;11.80;99.90;;;;;;5074511;28;20049;-22
2023/03/24 03:16:06;;;;;;;4.97;3.10;;;11.70;99.90;;;;;;5074753;28;20056;-21
2023/03/24 03:18:42;;;;;;;5.30;3.30;;;11.20;99.90;;;;;;5074171;28;20078;-21
2023/03/24 03:21:14;;;;;;;7.07;3.95;;;11.20;99.90;;;;;;5074872;28;20071;-21
2023/03/24 03:23:50;;;;;;;5.82;2.92;;;11.60;99.90;;;;;;5073891;28;20128;-21
2023/03/24 03:26:22;;;;;;;2.70;2.03;;;11.60;99.90;;;;;;5073790;28;20400;-21
2023/03/24 03:28:56;;;;;;;7.60;2.33;;;11.30;99.90;;;;;;5073936;28;20491;-22
2023/03/24 03:31:31;;;;;;;5.80;2.65;;;10.60;99.90;;;;;;5073970;28;20044;-22
2023/03/24 03:34:36;;;;;;;3.60;2.28;;;11.20;99.90;;;;;;5074825;28;20052;-22
2023/03/24 03:37:31;;;;;;;3.88;1.90;;;10.40;99.90;;;;;;5072381;28;20064;-21
2023/03/24 03:40:23;;;;;;;4.40;2.60;;;10.70;99.90;;;;;;5073869;28;20052;-21
2023/03/24 03:42:50;;;;;;;3.90;1.90;;;10.20;99.90;;;;;;5073420;28;20106;-22
2023/03/24 03:45:16;;;;;;;1.83;1.20;;;10.30;99.90;;;;;;5073755;28;20119;-22
2023/03/24 03:47:42;;;;;;;3.60;2.15;;;10.30;99.90;;;;;;5073627;28;20051;-21
2023/03/24 03:50:09;;;;;;;8.57;2.58;;;10.20;99.90;;;;;;5073766;28;20048;-22
2023/03/24 03:52:38;;;;;;;4.90;1.50;;;10.10;99.90;;;;;;5073648;28;20055;-22
2023/03/24 03:55:05;;;;;;;5.88;1.23;;;10.10;99.90;;;;;;5072681;28;20044;-22
2023/03/24 03:57:32;;;;;;;4.85;1.15;;;10.10;99.90;;;;;;5073623;28;20040;-22
2023/03/24 04:00:12;;;;;;;5.82;1.42;;;10.10;99.90;;;;;;5073635;28;20095;-22
2023/03/24 04:03:09;;;;;;;6.07;1.00;;;9.90;99.90;;;;;;5073617;28;20534;-22
2023/03/24 04:05:41;;;;;;;6.57;1.20;;;9.90;99.90;;;;;;5073491;28;20098;-22
2023/03/24 04:08:40;;;;;;;5.07;0.90;;;9.70;99.90;;;;;;5073471;28;20044;-22
2023/03/24 04:11:17;;;;;;;5.80;1.38;;;9.70;99.90;;;;;;5073534;28;20044;-22
2023/03/24 04:14:06;;;;;;;3.92;1.02;;;9.60;99.90;;;;;;5073827;28;20067;-22
2023/03/24 04:16:39;;;;;;;8.80;2.08;;;9.60;99.90;;;;;;5074288;28;20052;-22
2023/03/24 04:19:17;;;;;;;4.57;0.90;;;9.50;99.90;;;;;;5074053;28;20045;-22
2023/03/24 04:21:48;;;;;;;8.60;1.48;;;9.40;99.90;;;;;;5073995;28;20102;-22
2023/03/24 04:24:39;;;;;;;7.13;1.05;;;9.20;99.90;;;;;;5073904;28;20051;-23
2023/03/24 04:27:20;;;;;;;7.90;1.17;;;9.20;99.90;;;;;;5073237;28;20045;-23
2023/03/24 04:29:55;;;;;;;10.18;2.00;;;9.10;99.90;;;;;;5073655;28;20189;-23
2023/03/24 04:32:40;;;;;;;6.30;1.42;;;9.10;99.90;;;;;;5073291;28;20079;-23
2023/03/24 04:35:33;;;;;;;6.72;1.48;;;9.10;99.90;;;;;;5075186;28;20059;-23
2023/03/24 04:38:06;;;;;;;4.87;0.87;;;9.00;99.90;;;;;;5077637;28;20044;-23
2023/03/24 04:40:33;;;;;;;6.05;1.58;;;8.90;99.90;;;;;;5077580;28;20044;-23
2023/03/24 04:43:03;;;;;;;14.23;1.83;;;8.90;99.90;;;;;;5075787;28;20502;-23
2023/03/24 04:45:32;;;;;;;8.98;1.70;;;8.90;99.90;;;;;;5077609;28;20048;-23
2023/03/24 04:48:03;;;;;;;16.00;2.15;;;8.90;99.90;;;;;;5077224;28;20146;-24
2023/03/24 04:50:36;;;;;;;5.40;1.08;;;8.90;99.90;;;;;;5077351;28;20044;-24
2023/03/24 04:53:03;;;;;;;;;;;8.90;99.90;;;;;;5077385;28;20060;-24
2023/03/24 04:55:35;;;;;;;11.40;1.80;;;8.80;99.90;;;;;;5076938;28;20267;-24
2023/03/24 04:58:00;;;;;;;5.18;1.40;;;8.70;99.90;;;;;;5077357;28;20048;-24
2023/03/24 05:00:26;;;;;;;16.20;2.30;;;8.80;99.90;;;;;;5075637;28;20051;-24
2023/03/24 05:02:52;;;;;;;10.20;1.92;;;8.80;99.90;;;;;;5076728;28;20044;-24
2023/03/24 05:05:18;;;;;;;12.57;2.28;;;8.70;99.90;;;;;;5076659;28;20040;-24
2023/03/24 05:07:44;;;;;;;9.63;1.60;;;8.70;99.90;;;;;;5076579;28;20123;-25
2023/03/24 05:10:10;;;;;;;7.13;1.05;;;8.70;99.90;;;;;;5076017;28;20121;-24
2023/03/24 05:12:36;;;;;;;10.38;1.58;;;8.70;99.90;;;;;;5076905;28;20044;-24
2023/03/24 05:15:03;;;;;;;16.42;2.30;;;8.60;99.90;;;;;;5076508;28;20044;-25
2023/03/24 05:17:28;;;;;;;12.07;2.47;;;8.70;99.90;;;;;;5076751;28;20411;-24
2023/03/24 05:19:54;;;;;;;11.10;2.20;;;8.70;99.90;;;;;;5076462;28;20052;-24
2023/03/24 05:22:20;;;;;;;17.77;2.83;;;8.80;99.90;;;;;;5076477;28;20053;-25
2023/03/24 05:24:46;;;;;;;9.93;1.60;;;8.90;99.90;;;;;;5076697;28;20131;-25
2023/03/24 05:27:11;;;;;;;9.48;1.65;;;8.90;99.90;;;;;;5076301;28;20048;-25
2023/03/24 05:29:37;;;;;;;12.35;2.30;;;9.10;99.90;;;;;;5075393;28;20090;-25
2023/03/24 05:32:03;;;;;;;17.77;2.60;;;9.20;99.90;;;;;;5075938;28;20126;-25
2023/03/24 05:34:29;;;;;;;11.00;2.00;;;9.30;99.90;;;;;;5076134;28;20040;-25
2023/03/24 05:36:55;;;;;;;15.02;3.58;;;9.40;99.90;;;;;;5076113;28;20051;-25
2023/03/24 05:39:21;;;;;;;13.65;2.97;;;9.50;99.90;;;;;;5076662;28;20048;-25
2023/03/24 05:41:47;;;;;;;15.98;2.70;;;9.40;99.90;;;;;;5075791;28;20094;-26
2023/03/24 05:44:12;;;;;;;6.53;1.73;;;9.50;99.90;;;;;;5075646;28;20044;-25
2023/03/24 05:46:38;;;;;;;14.10;3.00;;;9.50;99.90;;;;;;5074344;28;20055;-25
2023/03/24 05:49:04;;;;;;;8.75;2.28;;;9.50;99.90;;;;;;5076413;28;20124;-25
2023/03/24 05:51:30;;;;;;;19.80;4.40;;;9.50;99.90;;;;;;5076428;28;20079;-25
2023/03/24 05:53:56;;;;;;;8.18;2.53;;;9.50;99.90;;;;;;5074694;28;20071;-25
2023/03/24 05:56:21;;;;;;;11.77;2.40;;;9.50;99.90;;;;;;5076332;28;20095;-26
2023/03/24 05:58:47;;;;;;;10.98;2.35;;;9.50;99.90;;;;;;5075674;28;20123;-25
2023/03/24 06:01:17;;;;;;;12.27;2.47;;;9.50;99.90;;;;;;5074458;28;20049;-26
2023/03/24 06:03:43;;;;;;;8.75;2.45;;;9.50;99.90;;;;;;5074398;28;20520;-25
2023/03/24 06:06:13;;;;;;;9.73;2.25;;;9.50;99.90;;;;;;5075559;28;20091;-25
2023/03/24 06:08:39;;;;;;;16.13;2.75;;;9.50;99.90;;;;;;5075506;28;20133;-26
2023/03/24 06:11:06;;;;;;;13.75;2.17;;;9.40;99.90;;;;;;5075463;28;20059;-28
2023/03/24 06:13:32;;;;;;;15.10;3.00;;;9.30;99.90;;;;;;5075245;28;20127;-26
2023/03/24 06:15:59;;;;;;;10.40;2.42;;;9.30;99.90;;;;;;5075333;28;20110;-25
2023/03/24 06:18:29;;;;;;;16.40;2.28;;;9.40;99.90;;;;;;5075280;28;20475;-26
2023/03/24 06:20:55;;;;;;;14.13;2.47;;;9.40;99.90;;;;;;5075241;28;20048;-26
2023/03/24 06:23:25;;;;;;;12.48;2.25;;;9.30;99.90;;;;;;5074249;28;20052;-25
2023/03/24 06:25:55;;;;;;;15.23;3.15;;;9.40;99.90;;;;;;5074513;28;20131;-26
2023/03/24 06:28:21;;;;;;;12.35;2.10;;;9.40;99.90;;;;;;5074461;28;20066;-26
2023/03/24 06:30:48;;;;;;;10.82;2.20;;;9.40;99.90;;;;;;5075063;28;20131;-26
2023/03/24 06:33:15;;;;;;;12.23;2.58;;;9.40;99.90;;;;;;5075089;28;20436;-26
2023/03/24 06:35:40;;;;;;;12.50;2.40;;;9.40;99.90;;;;;;5074356;28;20052;-26
2023/03/24 06:38:06;;;;;;;14.68;2.33;;;9.40;99.90;;;;;;5074698;28;20041;-27
2023/03/24 06:40:33;;;;;;;12.60;2.83;;;9.40;99.90;;;;;;5074831;28;20212;-26
2023/03/24 06:42:59;;;;;;;11.55;1.95;;;9.40;99.90;;;;;;5073178;28;20095;-27
2023/03/24 06:45:25;;;;;;;17.50;2.92;;;9.40;99.90;;;;;;5074672;28;20044;-27
2023/03/24 06:47:57;;;;;;;9.52;2.40;;;9.50;99.90;;;;;;5074541;28;20114;-28
2023/03/24 06:50:31;;;;;;;12.77;2.65;;;9.50;99.90;;;;;;5074587;28;20044;-27
2023/03/24 06:53:01;;;;;;;10.27;2.08;;;9.50;99.90;;;;;;5075126;28;20106;-26
2023/03/24 06:55:27;;;;;;;18.70;2.83;;;9.50;99.90;;;;;;5074531;28;20105;-27
2023/03/24 06:57:52;;;;;;;12.20;2.03;;;9.60;99.90;;;;;;5073628;28;20041;-27
2023/03/24 07:00:18;;;;;;;16.38;2.72;;;9.60;99.90;;;;;;5074372;28;20049;-27
2023/03/24 07:02:44;;;;;;;8.73;1.40;;;9.60;99.90;;;;;;5074501;28;20045;-27
2023/03/24 07:05:11;;;;;;;9.73;2.70;;;9.70;99.90;;;;;;5075547;28;20040;-27
2023/03/24 07:07:37;;;;;;;12.43;2.50;;;9.70;99.90;;;;;;5073269;28;20178;-27
2023/03/24 07:10:05;;;;;;;17.55;2.35;;;9.60;99.90;;;;;;5074328;28;20056;-27
2023/03/24 07:12:31;;;;;;;15.15;2.60;;;9.70;99.90;;;;;;5074141;28;20052;-28
2023/03/24 07:14:57;;;;;;;13.07;1.85;;;9.70;99.90;;;;;;5074014;28;20498;-27
2023/03/24 07:17:23;;;;;;;17.00;3.13;;;9.70;99.90;;;;;;5073783;28;20456;-27
2023/03/24 07:19:49;;;;;;;15.75;2.58;;;9.80;99.90;;;;;;5073921;28;20536;-27
2023/03/24 07:22:15;;;;;;;13.73;2.22;;;9.80;99.90;;;;;;5073185;28;20052;-27
2023/03/24 07:24:41;;;;;;;24.58;3.47;;;9.90;99.90;;;;;;5072950;28;20049;-27
2023/03/24 07:27:06;;;;;;;13.02;2.15;;;9.90;99.90;;;;;;5074311;28;20049;-29
2023/03/24 07:29:32;;;;;;;14.45;3.20;;;9.90;99.90;;;;;;5073797;28;20047;-29
2023/03/24 07:31:59;;;;;;;15.40;2.85;;;9.90;99.90;;;;;;5074142;28;20040;-28
2023/03/24 07:34:26;;;;;;;19.55;3.08;;;9.90;99.90;;;;;;5073824;28;20048;-28
2023/03/24 07:36:52;;;;;;;10.80;2.53;;;10.00;99.90;;;;;;5073898;28;20048;-28
2023/03/24 07:39:19;;;;;;;12.60;2.60;;;10.00;99.90;;;;;;5072747;28;20040;-28
2023/03/24 07:41:45;;;;;;;15.75;3.15;;;10.00;99.90;;;;;;5072874;28;20127;-28
2023/03/24 07:44:12;;;;;;;14.07;2.65;;;10.00;99.90;;;;;;5074161;28;20068;-28
2023/03/24 07:46:38;;;;;;;17.48;2.72;;;10.00;99.90;;;;;;5072736;28;20194;-28
2023/03/24 07:49:05;;;;;;;16.50;3.13;;;10.00;99.90;;;;;;5073650;28;20044;-28
2023/03/24 07:51:31;;;;;;;18.15;3.22;;;10.10;99.90;;;;;;5073372;28;20453;-29
2023/03/24 07:53:57;;;;;;;20.02;3.78;;;10.10;99.90;;;;;;5073733;28;20137;-29
2023/03/24 07:56:23;;;;;;;18.70;4.32;;;10.20;99.90;;;;;;5074465;28;20044;-28
2023/03/24 07:58:49;;;;;;;16.45;2.72;;;10.20;99.90;;;;;;5073554;28;20515;-29
2023/03/24 08:01:15;;;;;;;17.15;2.85;;;10.20;99.90;;;;;;5072486;28;20049;-29
2023/03/24 08:03:41;;;;;;;19.65;3.28;;;10.20;99.90;;;;;;5073632;28;20475;-30
2023/03/24 08:06:08;;;;;;;18.17;3.42;;;10.20;99.90;;;;;;5073888;28;20040;-29
2023/03/24 08:08:35;;;;;;;24.30;2.75;;;10.30;99.90;;;;;;5073258;28;20048;-29
2023/03/24 08:11:01;;;;;;;21.80;4.13;;;10.30;99.90;;;;;;5074402;28;20084;-29
2023/03/24 08:13:27;;;;;;;18.45;2.80;;;10.30;99.90;;;;;;5072185;28;20051;-29
2023/03/24 08:15:53;;;;;;;13.15;2.30;;;10.30;99.90;;;;;;5073465;28;20131;-30
2023/03/24 08:18:23;;;;;;;14.77;2.95;;;10.30;99.90;;;;;;5073428;28;20044;-29
2023/03/24 08:20:53;;;;;;;17.35;2.63;;;10.30;89.10;;;;;;5073729;28;20079;-29
2023/03/24 08:23:19;;;;;;;17.55;3.20;;;10.30;99.90;;;;;;5073739;28;20045;-30
2023/03/24 08:25:46;;;;;;;24.15;3.90;;;10.30;99.90;;;;;;5073357;28;20049;-30
2023/03/24 08:28:12;;;;;;;18.83;3.92;;;10.40;99.90;;;;;;5072071;28;20048;-30
2023/03/24 08:30:38;;;;;;;30.15;4.72;;;10.40;46.70;;;;;;5055657;28;20562;-30
2023/03/24 08:33:04;;;;;;;23.17;4.93;;;10.40;31.00;;;;;;5073407;28;20513;-30
2023/03/24 08:35:32;;;;;;;16.48;2.97;;;10.50;99.90;;;;;;5073340;28;20048;-30
2023/03/24 08:38:00;;;;;;;15.50;2.65;;;10.50;95.30;;;;;;5074387;28;20051;-30
2023/03/24 08:40:28;;;;;;;16.90;2.92;;;10.60;92.20;;;;;;5074071;28;20052;-30
2023/03/24 08:42:59;;;;;;;15.00;2.80;;;10.60;1.00;;;;;;5073582;28;20099;-30
2023/03/24 08:45:29;;;;;;;14.43;2.83;;;10.60;99.90;;;;;;5074076;28;20056;-31
2023/03/24 08:47:57;;;;;;;17.52;3.13;;;10.70;99.90;;;;;;5072406;28;20045;-31
2023/03/24 08:50:27;;;;;;;12.70;2.72;;;10.70;99.90;;;;;;5071902;28;20051;-31
2023/03/24 08:52:54;;;;;;;10.73;3.08;;;10.90;99.90;;;;;;5073150;28;20052;-31
2023/03/24 08:55:21;;;;;;;18.40;2.83;;;10.80;99.90;;;;;;5055430;28;20471;-32
2023/03/24 08:57:48;;;;;;;23.92;3.88;;;10.80;99.90;;;;;;5073115;28;20127;-31
2023/03/24 09:00:15;;;;;;;15.45;2.83;;;10.80;99.90;;;;;;5073351;28;20048;-32
2023/03/24 09:02:47;;;;;;;25.00;3.88;;;10.80;99.90;;;;;;5072681;28;20514;-32
2023/03/24 09:05:14;;;;;;;23.33;3.83;;;10.80;99.90;;;;;;5073742;28;20045;-31
2023/03/24 09:07:41;;;;;;;19.23;3.45;;;11.00;99.90;;;;;;5071670;28;20487;-31
2023/03/24 09:10:08;;;;;;;18.73;3.22;;;11.10;99.90;;;;;;5073588;28;20064;-33
2023/03/24 09:12:35;;;;;;;24.08;2.92;;;11.40;99.90;;;;;;5072880;28;20124;-32
2023/03/24 09:15:00;;;;;;;16.95;3.30;;;11.40;1.00;;;;;;5072919;28;20474;-32
2023/03/24 09:17:26;;;;;;;17.58;3.92;;;11.40;80.80;;;;;;5072863;28;20127;-32
2023/03/24 09:19:52;;;;;;;13.93;2.13;;;11.40;66.80;;;;;;5072427;28;20357;-33
2023/03/24 09:22:18;;;;;;;20.35;3.22;;;11.40;45.00;;;;;;5076412;28;20049;-33
2023/03/24 09:24:43;;;;;;;14.90;2.83;;;11.60;99.90;;;;;;5075205;28;20082;-33
2023/03/24 09:27:10;;;;;;;15.27;2.90;;;11.10;99.90;;;;;;5076283;28;20559;-33
2023/03/24 09:29:35;;;;;;;17.20;2.80;;;10.90;99.90;;;;;;5076207;28;20056;-35
2023/03/24 09:32:02;;;;;;;11.48;2.53;;;10.80;1.00;;;;;;5076251;28;20426;-34
2023/03/24 09:34:27;;;;;;;12.93;3.33;;;10.60;1.00;;;;;;5075253;28;20048;-33
2023/03/24 09:36:53;;;;;;;20.33;4.05;;;10.70;1.00;;;;;;5076134;28;20055;-33
2023/03/24 09:39:20;;;;;;;10.40;2.63;;;11.10;99.90;;;;;;5075769;28;20041;-33
2023/03/24 09:41:49;;;;;;;12.15;3.10;;;11.30;99.90;;;;;;5075122;28;20048;-33
2023/03/24 09:44:26;;;;;;;13.02;2.53;;;11.20;99.90;;;;;;5076255;28;20056;-33
2023/03/24 09:46:58;;;;;;;16.20;3.00;;;11.30;99.90;;;;;;5076373;28;20048;-36
2023/03/24 09:49:29;;;;;;;10.48;2.63;;;11.90;99.90;;;;;;5074847;28;20474;-34
2023/03/24 09:52:06;;;;;;;14.75;2.30;;;13.40;99.90;;;;;;5076449;28;20041;-34
2023/03/24 09:54:52;;;;;;;16.77;4.55;;;12.30;85.00;;;;;;5075842;28;20058;-33
2023/03/24 09:57:36;;;;;;;12.00;3.05;;;12.40;1.00;;;;;;5074950;28;20153;-34
2023/03/24 10:00:17;;;;;;;15.40;2.83;;;12.60;99.90;;;;;;5075808;28;20052;-33
2023/03/24 10:02:43;;;;;;;10.35;2.00;;;12.50;1.00;;;;;;5075760;28;20482;-33
2023/03/24 10:05:25;;;;;;;10.88;2.80;;;12.00;1.00;;;;;;5076148;28;20045;-34
2023/03/24 10:08:11;;;;;;;13.52;2.60;;;11.90;1.00;;;;;;5057802;28;20127;-35
2023/03/24 10:11:08;;;;;;;9.30;1.95;;;11.60;1.00;;;;;;5074646;28;20093;-33
2023/03/24 10:13:45;;;;;;;11.05;2.17;;;12.00;97.00;;;;;;5075234;28;20059;-34
2023/03/24 10:16:31;;;;;;;11.50;1.85;;;12.50;99.90;;;;;;5075791;28;20519;-34
2023/03/24 10:19:37;;;;;;;10.98;1.75;;;12.90;99.90;;;;;;5076061;28;20068;-33
2023/03/24 10:22:24;;;;;;;10.32;2.05;;;12.90;1.00;;;;;;5074674;28;20049;-35
2023/03/24 10:25:14;;;;;;;13.60;2.75;;;12.90;50.10;;;;;;5075392;28;20532;-33
2023/03/24 10:27:43;;;;;;;12.25;2.75;;;12.60;1.00;;;;;;5074069;28;20544;-33
2023/03/24 10:30:19;;;;;;;8.05;1.80;;;12.50;1.00;;;;;;5075431;28;20094;-34
2023/03/24 10:32:45;;;;;;;7.65;1.70;;;12.20;99.90;;;;;;5074856;28;20127;-33
2023/03/24 10:35:32;;;;;;;10.20;2.88;;;12.20;99.90;;;;;;5074973;28;20123;-34
2023/03/24 10:38:01;;;;;;;17.10;3.13;;;11.80;99.90;;;;;;5075820;28;20080;-34
2023/03/24 10:40:30;;;;;;;18.67;2.97;;;11.90;99.90;;;;;;5075473;28;20040;-34
2023/03/24 10:42:58;;;;;;;14.00;2.65;;;12.00;99.90;;;;;;5074561;28;20493;-33
2023/03/24 10:45:35;;;;;;;17.45;2.92;;;11.80;92.60;;;;;;5074964;28;20083;-34
2023/03/24 10:48:03;;;;;;;15.82;2.38;;;11.90;99.90;;;;;;5074920;28;20044;-33
2023/03/24 10:50:34;;;;;;;7.40;1.85;;;11.80;99.90;;;;;;5074808;28;20044;-33
2023/03/24 10:53:06;;;;;;;11.25;2.03;;;11.50;99.90;;;;;;5074104;28;20052;-34
2023/03/24 10:55:42;;;;;;;14.25;3.17;;;11.30;57.70;;;;;;5074766;28;20138;-33
2023/03/24 10:58:22;;;;;;;13.10;2.80;;;11.30;99.90;;;;;;5074748;28;20048;-33
2023/03/24 11:00:49;;;;;;;15.80;2.58;;;11.90;66.70;;;;;;5073424;28;20114;-34
2023/03/24 11:03:27;;;;;;;11.23;2.20;;;12.50;99.90;;;;;;5073371;28;20041;-33
2023/03/24 11:06:01;;;;;;;17.08;3.05;;;13.00;99.90;;;;;;5073917;28;20052;-35
2023/03/24 11:08:36;;;;;;;15.60;3.22;;;13.70;99.90;;;;;;5074672;28;20040;-33
2023/03/24 11:11:23;;;;;;;14.40;2.63;;;13.90;1.00;;;;;;5074598;28;20482;-33
2023/03/24 11:13:57;;;;;;;10.32;2.15;;;13.60;99.90;;;;;;5073341;28;20088;-33
2023/03/24 11:16:30;;;;;;;7.70;2.22;;;13.10;99.90;;;;;;5074888;28;20052;-34
2023/03/24 11:19:04;;;;;;;13.82;1.67;;;13.10;99.90;;;;;;5072975;28;20051;-33
2023/03/24 11:21:34;;;;;;;13.80;2.38;;;13.30;99.90;;;;;;5074834;28;20422;-32
2023/03/24 11:24:10;;;;;;;7.78;2.28;;;13.60;1.00;;;;;;5074157;28;20040;-33
2023/03/24 11:26:38;;;;;;;10.93;2.60;;;13.30;99.90;;;;;;5073979;28;20044;-33
2023/03/24 11:29:08;;;;;;;15.00;2.38;;;13.30;99.90;;;;;;5072787;28;20143;-33
2023/03/24 11:31:39;;;;;;;14.10;2.40;;;13.60;99.90;;;;;;5073701;28;20414;-33
2023/03/24 11:34:12;;;;;;;14.93;2.45;;;13.40;99.90;;;;;;5074037;28;20045;-32
2023/03/24 11:36:47;;;;;;;7.07;1.55;;;13.50;1.00;;;;;;5072967;28;20044;-32
2023/03/24 11:39:20;;;;;;;12.80;2.70;;;13.60;99.90;;;;;;5074455;28;20048;-32
2023/03/24 11:42:04;;;;;;;16.65;2.63;;;13.80;99.90;;;;;;5073681;28;20514;-32
2023/03/24 11:44:52;;;;;;;10.80;2.67;;;13.70;99.90;;;;;;5074087;28;20065;-32
2023/03/24 11:47:31;;;;;;;14.23;3.03;;;13.40;1.00;;;;;;5073787;28;20078;-33
2023/03/24 11:50:14;;;;;;;7.28;1.92;;;13.60;1.00;;;;;;5074057;28;20453;-32
2023/03/24 11:52:54;;;;;;;6.82;2.13;;;13.70;99.90;;;;;;5074331;28;20044;-33
2023/03/24 11:55:53;;;;;;;6.95;1.73;;;13.60;99.90;;;;;;5074565;28;20043;-32
2023/03/24 11:58:33;;;;;;;17.90;3.63;;;13.50;99.90;;;;;;5073810;28;20043;-31
2023/03/24 12:01:06;;;;;;;14.45;2.45;;;13.80;99.90;;;;;;5073708;28;20136;-32
2023/03/24 12:04:09;;;;;;;12.48;2.00;;;14.00;1.00;;;;;;5073662;28;20055;-32
2023/03/24 12:07:24;;;;;;;10.23;2.40;;;13.90;1.00;;;;;;5073291;28;20452;-32
2023/03/24 12:10:09;;;;;;;13.73;2.13;;;13.90;1.00;;;;;;5054803;28;20053;-31
2023/03/24 12:12:58;;;;;;;13.65;2.97;;;13.70;1.00;;;;;;5073598;28;20181;-32
2023/03/24 12:16:00;;;;;;;10.00;1.83;;;13.70;99.90;;;;;;5074337;28;20433;-30
2023/03/24 12:18:40;;;;;;;12.43;2.08;;;13.20;1.00;;;;;;5073511;28;20036;-31
2023/03/24 12:21:24;;;;;;;6.85;1.58;;;13.00;99.90;;;;;;5073483;28;20136;-31
2023/03/24 12:23:49;;;;;;;;;;;12.90;99.90;;;;;;5073358;28;20045;-31
2023/03/24 12:26:27;;;;;;;13.95;2.35;;;13.40;99.90;;;;;;5072520;28;20027;-31
2023/03/24 12:29:10;;;;;;;7.13;1.67;;;13.60;99.90;;;;;;5073616;28;20127;-30
2023/03/24 12:31:51;;;;;;;9.57;1.80;;;13.90;99.90;;;;;;5073982;28;20097;-30
2023/03/24 12:35:05;;;;;;;9.57;1.90;;;13.70;99.90;;;;;;5073957;28;20041;-31
2023/03/24 12:37:30;;;;;;;;;;;12.80;99.90;;;;;;5074228;28;20091;-30
2023/03/24 12:40:11;;;;;;;19.20;2.42;;;12.40;1.00;;;;;;5073308;28;19920;-29
2023/03/24 12:42:45;;;;;;;12.85;2.88;;;12.30;1.00;;;;;;5073002;28;20064;-30
2023/03/24 12:45:37;;;;;;;12.20;2.58;;;12.40;1.00;;;;;;5072068;28;20136;-29
2023/03/24 12:48:06;;;;;;;12.15;1.75;;;12.30;24.70;;;;;;5072373;28;20127;-30
2023/03/24 12:50:50;;;;;;;10.55;2.25;;;12.80;99.90;;;;;;5073172;28;20056;-30
2023/03/24 12:53:59;;;;;;;12.25;2.70;;;12.80;1.00;;;;;;5056493;28;20103;-30
2023/03/24 12:56:34;;;;;;;17.42;3.25;;;12.60;1.00;;;;;;5073615;28;20479;-30
2023/03/24 12:59:33;;;;;;;17.25;3.08;;;12.50;99.90;;;;;;5076429;28;20049;-29
2023/03/24 13:02:30;;;;;;;8.20;2.22;;;12.40;99.90;;;;;;5076016;28;20388;-29
2023/03/24 13:05:04;;;;;;;11.68;2.53;;;13.10;1.00;;;;;;5076805;28;20097;-30
2023/03/24 13:07:36;;;;;;;9.73;2.00;;;13.30;1.00;;;;;;5076742;28;20123;-30
2023/03/24 13:10:25;;;;;;;18.08;3.50;;;13.20;1.00;;;;;;5076016;28;20054;-30
2023/03/24 13:13:14;;;;;;;10.20;2.05;;;12.80;99.90;;;;;;5076533;28;20055;-29
2023/03/24 13:16:09;;;;;;;11.93;2.28;;;12.50;99.90;;;;;;5077530;28;20052;-29